sensor_id;sensor_type;location;lat;lon;timestamp;P1;durP1;ratioP1;P2;durP2;ratioP2
27303;SDS011;14791;52.392;13.092;2023-02-08T00:01:30;11.07;;;9.73;;
27303;SDS011;14791;52.392;13.092;2023-02-08T00:03:59;8.33;;;7.70;;
27303;SDS011;14791;52.392;13.092;2023-02-08T00:06:28;8.53;;;7.93;;
27303;SDS011;14791;52.392;13.092;2023-02-08T00:08:57;8.40;;;7.70;;
27303;SDS011;14791;52.392;13.092;2023-02-08T00:11:27;8.20;;;7.60;;
27303;SDS011;14791;52.392;13.092;2023-02-08T00:13:56;7.83;;;7.13;;
27303;SDS011;14791;52.392;13.092;2023-02-08T00:16:25;8.07;;;7.37;;
27303;SDS011;14791;52.392;13.092;2023-02-08T00:18:54;8.60;;;7.87;;
27303;SDS011;14791;52.392;13.092;2023-02-08T00:21:23;8.07;;;7.30;;
27303;SDS011;14791;52.392;13.092;2023-02-08T00:23:51;7.13;;;6.63;;
27303;SDS011;14791;52.392;13.092;2023-02-08T00:26:20;8.37;;;7.67;;
27303;SDS011;14791;52.392;13.092;2023-02-08T00:28:49;7.90;;;7.23;;
27303;SDS011;14791;52.392;13.092;2023-02-08T00:31:18;7.87;;;7.23;;
27303;SDS011;14791;52.392;13.092;2023-02-08T00:33:47;8.10;;;7.50;;
27303;SDS011;14791;52.392;13.092;2023-02-08T00:36:16;7.93;;;7.37;;
27303;SDS011;14791;52.392;13.092;2023-02-08T00:38:45;7.10;;;6.53;;
27303;SDS011;14791;52.392;13.092;2023-02-08T00:41:14;8.33;;;7.73;;
27303;SDS011;14791;52.392;13.092;2023-02-08T00:43:43;8.90;;;8.10;;
27303;SDS011;14791;52.392;13.092;2023-02-08T00:46:12;8.20;;;7.63;;
27303;SDS011;14791;52.392;13.092;2023-02-08T00:48:41;7.80;;;7.30;;
27303;SDS011;14791;52.392;13.092;2023-02-08T00:51:11;8.47;;;7.77;;
27303;SDS011;14791;52.392;13.092;2023-02-08T00:53:42;8.53;;;7.63;;
27303;SDS011;14791;52.392;13.092;2023-02-08T00:56:12;8.23;;;7.63;;
27303;SDS011;14791;52.392;13.092;2023-02-08T00:58:42;8.47;;;7.70;;
27303;SDS011;14791;52.392;13.092;2023-02-08T01:01:11;7.97;;;7.37;;
27303;SDS011;14791;52.392;13.092;2023-02-08T01:03:41;8.27;;;7.57;;
27303;SDS011;14791;52.392;13.092;2023-02-08T01:06:14;7.80;;;7.17;;
27303;SDS011;14791;52.392;13.092;2023-02-08T01:08:44;7.67;;;7.00;;
27303;SDS011;14791;52.392;13.092;2023-02-08T01:11:16;8.23;;;7.53;;
27303;SDS011;14791;52.392;13.092;2023-02-08T01:13:51;7.63;;;7.17;;
27303;SDS011;14791;52.392;13.092;2023-02-08T01:16:25;7.97;;;7.27;;
27303;SDS011;14791;52.392;13.092;2023-02-08T01:18:55;7.63;;;7.03;;
27303;SDS011;14791;52.392;13.092;2023-02-08T01:21:27;7.83;;;7.23;;
27303;SDS011;14791;52.392;13.092;2023-02-08T01:23:58;7.80;;;7.10;;
27303;SDS011;14791;52.392;13.092;2023-02-08T01:26:29;7.17;;;6.67;;
27303;SDS011;14791;52.392;13.092;2023-02-08T01:28:59;7.53;;;6.93;;
27303;SDS011;14791;52.392;13.092;2023-02-08T01:31:32;8.50;;;7.80;;
27303;SDS011;14791;52.392;13.092;2023-02-08T01:34:20;7.33;;;6.67;;
27303;SDS011;14791;52.392;13.092;2023-02-08T01:36:49;7.37;;;6.73;;
27303;SDS011;14791;52.392;13.092;2023-02-08T01:39:18;6.90;;;6.50;;
27303;SDS011;14791;52.392;13.092;2023-02-08T01:41:47;7.20;;;6.80;;
27303;SDS011;14791;52.392;13.092;2023-02-08T01:46:47;8.93;;;7.17;;
27303;SDS011;14791;52.392;13.092;2023-02-08T01:49:33;8.90;;;7.90;;
27303;SDS011;14791;52.392;13.092;2023-02-08T01:52:07;7.30;;;6.73;;
27303;SDS011;14791;52.392;13.092;2023-02-08T01:54:54;7.70;;;7.17;;
27303;SDS011;14791;52.392;13.092;2023-02-08T01:57:24;7.77;;;7.17;;
27303;SDS011;14791;52.392;13.092;2023-02-08T02:00:00;8.70;;;7.90;;
27303;SDS011;14791;52.392;13.092;2023-02-08T02:02:27;8.43;;;7.73;;
27303;SDS011;14791;52.392;13.092;2023-02-08T02:04:56;9.13;;;8.33;;
27303;SDS011;14791;52.392;13.092;2023-02-08T02:07:27;8.83;;;8.00;;
27303;SDS011;14791;52.392;13.092;2023-02-08T02:10:34;8.67;;;7.83;;
27303;SDS011;14791;52.392;13.092;2023-02-08T02:12:48;8.87;;;8.03;;
27303;SDS011;14791;52.392;13.092;2023-02-08T02:15:18;8.70;;;7.97;;
27303;SDS011;14791;52.392;13.092;2023-02-08T02:17:48;7.87;;;7.17;;
27303;SDS011;14791;52.392;13.092;2023-02-08T02:20:20;9.20;;;8.37;;
27303;SDS011;14791;52.392;13.092;2023-02-08T02:34:18;8.77;;;8.10;;
27303;SDS011;14791;52.392;13.092;2023-02-08T02:39:34;8.80;;;8.17;;
27303;SDS011;14791;52.392;13.092;2023-02-08T02:42:13;8.60;;;7.53;;
27303;SDS011;14791;52.392;13.092;2023-02-08T02:50:42;8.30;;;7.60;;
27303;SDS011;14791;52.392;13.092;2023-02-08T02:53:38;7.80;;;7.10;;
27303;SDS011;14791;52.392;13.092;2023-02-08T02:56:07;8.50;;;7.90;;
27303;SDS011;14791;52.392;13.092;2023-02-08T02:58:40;9.00;;;8.27;;
27303;SDS011;14791;52.392;13.092;2023-02-08T03:01:12;9.37;;;8.53;;
27303;SDS011;14791;52.392;13.092;2023-02-08T03:03:41;9.50;;;8.63;;
27303;SDS011;14791;52.392;13.092;2023-02-08T03:06:11;9.20;;;8.40;;
27303;SDS011;14791;52.392;13.092;2023-02-08T03:11:50;9.43;;;8.53;;
27303;SDS011;14791;52.392;13.092;2023-02-08T03:17:01;10.67;;;9.10;;
27303;SDS011;14791;52.392;13.092;2023-02-08T03:19:42;9.20;;;8.37;;
27303;SDS011;14791;52.392;13.092;2023-02-08T03:22:13;9.67;;;8.77;;
27303;SDS011;14791;52.392;13.092;2023-02-08T03:24:51;9.37;;;8.57;;
27303;SDS011;14791;52.392;13.092;2023-02-08T03:30:19;10.03;;;9.13;;
27303;SDS011;14791;52.392;13.092;2023-02-08T03:32:58;10.30;;;9.40;;
27303;SDS011;14791;52.392;13.092;2023-02-08T03:35:38;10.20;;;9.23;;
27303;SDS011;14791;52.392;13.092;2023-02-08T03:38:10;9.93;;;8.83;;
27303;SDS011;14791;52.392;13.092;2023-02-08T03:40:45;9.60;;;8.70;;
27303;SDS011;14791;52.392;13.092;2023-02-08T03:43:26;9.93;;;9.03;;
27303;SDS011;14791;52.392;13.092;2023-02-08T03:46:02;10.50;;;9.50;;
27303;SDS011;14791;52.392;13.092;2023-02-08T03:48:28;9.60;;;8.67;;
27303;SDS011;14791;52.392;13.092;2023-02-08T03:50:58;9.97;;;9.07;;
27303;SDS011;14791;52.392;13.092;2023-02-08T03:53:29;10.83;;;9.83;;
27303;SDS011;14791;52.392;13.092;2023-02-08T03:56:02;9.87;;;8.97;;
27303;SDS011;14791;52.392;13.092;2023-02-08T03:58:37;10.83;;;9.83;;
27303;SDS011;14791;52.392;13.092;2023-02-08T04:01:31;10.70;;;9.63;;
27303;SDS011;14791;52.392;13.092;2023-02-08T04:03:55;11.47;;;10.20;;
27303;SDS011;14791;52.392;13.092;2023-02-08T04:06:25;10.73;;;9.77;;
27303;SDS011;14791;52.392;13.092;2023-02-08T04:08:54;11.17;;;10.07;;
27303;SDS011;14791;52.392;13.092;2023-02-08T04:11:23;11.13;;;10.03;;
27303;SDS011;14791;52.392;13.092;2023-02-08T04:13:52;10.23;;;9.33;;
27303;SDS011;14791;52.392;13.092;2023-02-08T04:16:21;11.23;;;10.13;;
27303;SDS011;14791;52.392;13.092;2023-02-08T04:18:50;11.70;;;10.53;;
27303;SDS011;14791;52.392;13.092;2023-02-08T04:21:18;11.87;;;10.77;;
27303;SDS011;14791;52.392;13.092;2023-02-08T04:23:47;11.67;;;10.57;;
27303;SDS011;14791;52.392;13.092;2023-02-08T04:26:16;11.87;;;10.73;;
27303;SDS011;14791;52.392;13.092;2023-02-08T04:28:45;11.70;;;10.67;;
27303;SDS011;14791;52.392;13.092;2023-02-08T04:31:14;12.10;;;10.90;;
27303;SDS011;14791;52.392;13.092;2023-02-08T04:33:43;11.90;;;10.70;;
27303;SDS011;14791;52.392;13.092;2023-02-08T04:36:12;12.63;;;11.43;;
27303;SDS011;14791;52.392;13.092;2023-02-08T04:38:41;12.37;;;10.93;;
27303;SDS011;14791;52.392;13.092;2023-02-08T04:41:10;12.70;;;11.47;;
27303;SDS011;14791;52.392;13.092;2023-02-08T04:43:39;12.63;;;11.43;;
27303;SDS011;14791;52.392;13.092;2023-02-08T04:46:08;12.17;;;10.87;;
27303;SDS011;14791;52.392;13.092;2023-02-08T04:48:36;11.90;;;10.67;;
27303;SDS011;14791;52.392;13.092;2023-02-08T04:51:06;11.33;;;10.33;;
27303;SDS011;14791;52.392;13.092;2023-02-08T04:53:35;11.20;;;10.20;;
27303;SDS011;14791;52.392;13.092;2023-02-08T04:56:04;11.00;;;9.90;;
27303;SDS011;14791;52.392;13.092;2023-02-08T04:58:33;12.33;;;10.77;;
27303;SDS011;14791;52.392;13.092;2023-02-08T05:01:06;12.87;;;11.60;;
27303;SDS011;14791;52.392;13.092;2023-02-08T05:03:36;13.10;;;11.53;;
27303;SDS011;14791;52.392;13.092;2023-02-08T05:06:06;12.17;;;10.97;;
27303;SDS011;14791;52.392;13.092;2023-02-08T05:08:35;11.67;;;10.47;;
27303;SDS011;14791;52.392;13.092;2023-02-08T05:11:04;11.63;;;10.60;;
27303;SDS011;14791;52.392;13.092;2023-02-08T05:13:33;11.93;;;10.83;;
27303;SDS011;14791;52.392;13.092;2023-02-08T05:16:02;12.30;;;11.13;;
27303;SDS011;14791;52.392;13.092;2023-02-08T05:18:31;12.03;;;10.83;;
27303;SDS011;14791;52.392;13.092;2023-02-08T05:21:00;12.30;;;11.10;;
27303;SDS011;14791;52.392;13.092;2023-02-08T05:23:29;12.13;;;10.87;;
27303;SDS011;14791;52.392;13.092;2023-02-08T05:25:59;12.53;;;11.27;;
27303;SDS011;14791;52.392;13.092;2023-02-08T05:28:29;12.83;;;11.50;;
27303;SDS011;14791;52.392;13.092;2023-02-08T05:30:58;13.17;;;11.67;;
27303;SDS011;14791;52.392;13.092;2023-02-08T05:33:29;11.73;;;10.47;;
27303;SDS011;14791;52.392;13.092;2023-02-08T05:35:57;12.47;;;11.33;;
27303;SDS011;14791;52.392;13.092;2023-02-08T05:38:26;13.40;;;11.40;;
27303;SDS011;14791;52.392;13.092;2023-02-08T05:40:55;11.87;;;10.53;;
27303;SDS011;14791;52.392;13.092;2023-02-08T05:43:24;13.30;;;11.90;;
27303;SDS011;14791;52.392;13.092;2023-02-08T05:45:53;12.93;;;11.47;;
27303;SDS011;14791;52.392;13.092;2023-02-08T05:48:22;13.43;;;11.67;;
27303;SDS011;14791;52.392;13.092;2023-02-08T05:50:51;12.93;;;11.57;;
27303;SDS011;14791;52.392;13.092;2023-02-08T05:53:20;13.40;;;11.73;;
27303;SDS011;14791;52.392;13.092;2023-02-08T05:55:49;12.80;;;11.50;;
27303;SDS011;14791;52.392;13.092;2023-02-08T05:58:18;13.97;;;12.00;;
27303;SDS011;14791;52.392;13.092;2023-02-08T06:00:47;13.87;;;12.47;;
27303;SDS011;14791;52.392;13.092;2023-02-08T06:03:16;13.27;;;11.87;;
27303;SDS011;14791;52.392;13.092;2023-02-08T06:05:44;12.97;;;11.70;;
27303;SDS011;14791;52.392;13.092;2023-02-08T06:08:13;11.63;;;10.60;;
27303;SDS011;14791;52.392;13.092;2023-02-08T06:10:42;12.00;;;10.80;;
27303;SDS011;14791;52.392;13.092;2023-02-08T06:13:11;13.10;;;11.80;;
27303;SDS011;14791;52.392;13.092;2023-02-08T06:15:41;13.27;;;12.03;;
27303;SDS011;14791;52.392;13.092;2023-02-08T06:18:10;13.30;;;12.00;;
27303;SDS011;14791;52.392;13.092;2023-02-08T06:20:40;12.37;;;11.30;;
27303;SDS011;14791;52.392;13.092;2023-02-08T06:23:09;12.30;;;11.10;;
27303;SDS011;14791;52.392;13.092;2023-02-08T06:25:38;11.50;;;10.50;;
27303;SDS011;14791;52.392;13.092;2023-02-08T06:28:07;12.57;;;11.27;;
27303;SDS011;14791;52.392;13.092;2023-02-08T06:30:37;12.50;;;11.30;;
27303;SDS011;14791;52.392;13.092;2023-02-08T06:33:06;13.40;;;12.03;;
27303;SDS011;14791;52.392;13.092;2023-02-08T06:35:35;11.80;;;10.60;;
27303;SDS011;14791;52.392;13.092;2023-02-08T06:38:04;11.60;;;10.50;;
27303;SDS011;14791;52.392;13.092;2023-02-08T06:40:33;12.13;;;10.80;;
27303;SDS011;14791;52.392;13.092;2023-02-08T06:43:02;11.73;;;10.73;;
27303;SDS011;14791;52.392;13.092;2023-02-08T06:45:31;12.97;;;11.67;;
27303;SDS011;14791;52.392;13.092;2023-02-08T06:48:00;13.27;;;11.87;;
27303;SDS011;14791;52.392;13.092;2023-02-08T06:50:29;12.70;;;11.43;;
27303;SDS011;14791;52.392;13.092;2023-02-08T06:52:58;14.23;;;12.80;;
27303;SDS011;14791;52.392;13.092;2023-02-08T06:55:27;18.63;;;16.17;;
27303;SDS011;14791;52.392;13.092;2023-02-08T06:57:56;17.13;;;14.80;;
27303;SDS011;14791;52.392;13.092;2023-02-08T07:00:25;14.80;;;13.30;;
27303;SDS011;14791;52.392;13.092;2023-02-08T07:02:54;14.60;;;12.63;;
27303;SDS011;14791;52.392;13.092;2023-02-08T07:05:23;16.00;;;14.23;;
27303;SDS011;14791;52.392;13.092;2023-02-08T07:07:52;15.00;;;13.43;;
27303;SDS011;14791;52.392;13.092;2023-02-08T07:10:21;16.27;;;14.20;;
27303;SDS011;14791;52.392;13.092;2023-02-08T07:12:50;16.17;;;13.60;;
27303;SDS011;14791;52.392;13.092;2023-02-08T07:15:18;14.97;;;13.37;;
27303;SDS011;14791;52.392;13.092;2023-02-08T07:17:47;13.40;;;11.83;;
27303;SDS011;14791;52.392;13.092;2023-02-08T07:20:16;12.97;;;11.60;;
27303;SDS011;14791;52.392;13.092;2023-02-08T07:22:45;12.93;;;11.53;;
27303;SDS011;14791;52.392;13.092;2023-02-08T07:25:14;13.87;;;12.23;;
27303;SDS011;14791;52.392;13.092;2023-02-08T07:27:43;13.00;;;11.67;;
27303;SDS011;14791;52.392;13.092;2023-02-08T07:30:12;14.07;;;12.00;;
27303;SDS011;14791;52.392;13.092;2023-02-08T07:32:41;12.57;;;11.37;;
27303;SDS011;14791;52.392;13.092;2023-02-08T07:35:10;14.40;;;12.90;;
27303;SDS011;14791;52.392;13.092;2023-02-08T07:37:39;13.07;;;11.77;;
27303;SDS011;14791;52.392;13.092;2023-02-08T07:40:08;13.50;;;11.70;;
27303;SDS011;14791;52.392;13.092;2023-02-08T07:42:38;13.40;;;11.97;;
27303;SDS011;14791;52.392;13.092;2023-02-08T07:45:14;13.97;;;12.00;;
27303;SDS011;14791;52.392;13.092;2023-02-08T07:47:44;13.47;;;11.57;;
27303;SDS011;14791;52.392;13.092;2023-02-08T07:50:14;13.93;;;12.53;;
27303;SDS011;14791;52.392;13.092;2023-02-08T07:52:43;12.07;;;10.83;;
27303;SDS011;14791;52.392;13.092;2023-02-08T07:55:13;12.87;;;11.63;;
27303;SDS011;14791;52.392;13.092;2023-02-08T07:57:43;13.53;;;12.13;;
27303;SDS011;14791;52.392;13.092;2023-02-08T08:00:14;16.53;;;13.43;;
27303;SDS011;14791;52.392;13.092;2023-02-08T08:02:44;13.80;;;12.00;;
27303;SDS011;14791;52.392;13.092;2023-02-08T08:05:15;15.00;;;13.43;;
27303;SDS011;14791;52.392;13.092;2023-02-08T08:07:44;12.77;;;11.40;;
27303;SDS011;14791;52.392;13.092;2023-02-08T08:10:13;14.53;;;13.00;;
27303;SDS011;14791;52.392;13.092;2023-02-08T08:12:42;14.97;;;12.23;;
27303;SDS011;14791;52.392;13.092;2023-02-08T08:15:11;13.07;;;11.77;;
27303;SDS011;14791;52.392;13.092;2023-02-08T08:17:40;14.70;;;11.53;;
27303;SDS011;14791;52.392;13.092;2023-02-08T08:20:09;14.17;;;12.67;;
27303;SDS011;14791;52.392;13.092;2023-02-08T08:22:39;15.33;;;13.10;;
27303;SDS011;14791;52.392;13.092;2023-02-08T08:25:07;13.93;;;12.37;;
27303;SDS011;14791;52.392;13.092;2023-02-08T08:27:36;13.50;;;12.13;;
27303;SDS011;14791;52.392;13.092;2023-02-08T08:30:06;15.67;;;12.87;;
27303;SDS011;14791;52.392;13.092;2023-02-08T08:32:37;14.03;;;12.50;;
27303;SDS011;14791;52.392;13.092;2023-02-08T08:35:06;15.93;;;13.20;;
27303;SDS011;14791;52.392;13.092;2023-02-08T08:37:36;14.10;;;12.60;;
27303;SDS011;14791;52.392;13.092;2023-02-08T08:40:05;22.80;;;17.00;;
27303;SDS011;14791;52.392;13.092;2023-02-08T08:42:36;16.57;;;14.80;;
27303;SDS011;14791;52.392;13.092;2023-02-08T08:45:08;17.67;;;13.67;;
27303;SDS011;14791;52.392;13.092;2023-02-08T08:47:38;15.87;;;12.87;;
27303;SDS011;14791;52.392;13.092;2023-02-08T08:50:07;14.40;;;12.97;;
27303;SDS011;14791;52.392;13.092;2023-02-08T08:52:36;15.83;;;13.33;;
27303;SDS011;14791;52.392;13.092;2023-02-08T08:55:06;17.10;;;13.80;;
27303;SDS011;14791;52.392;13.092;2023-02-08T08:57:35;14.97;;;13.20;;
27303;SDS011;14791;52.392;13.092;2023-02-08T09:00:05;13.00;;;11.60;;
27303;SDS011;14791;52.392;13.092;2023-02-08T09:02:34;11.60;;;10.43;;
27303;SDS011;14791;52.392;13.092;2023-02-08T09:05:03;12.73;;;11.50;;
27303;SDS011;14791;52.392;13.092;2023-02-08T09:07:34;11.50;;;10.33;;
27303;SDS011;14791;52.392;13.092;2023-02-08T09:10:03;12.20;;;11.00;;
27303;SDS011;14791;52.392;13.092;2023-02-08T09:12:32;13.30;;;11.60;;
27303;SDS011;14791;52.392;13.092;2023-02-08T09:15:01;14.47;;;12.97;;
27303;SDS011;14791;52.392;13.092;2023-02-08T09:17:31;14.83;;;13.33;;
27303;SDS011;14791;52.392;13.092;2023-02-08T09:19:59;14.77;;;13.37;;
27303;SDS011;14791;52.392;13.092;2023-02-08T09:22:28;14.47;;;12.97;;
27303;SDS011;14791;52.392;13.092;2023-02-08T09:24:57;16.43;;;13.13;;
27303;SDS011;14791;52.392;13.092;2023-02-08T09:27:28;16.23;;;14.53;;
27303;SDS011;14791;52.392;13.092;2023-02-08T09:29:57;16.30;;;14.57;;
27303;SDS011;14791;52.392;13.092;2023-02-08T09:32:26;14.70;;;13.07;;
27303;SDS011;14791;52.392;13.092;2023-02-08T09:34:56;16.33;;;14.07;;
27303;SDS011;14791;52.392;13.092;2023-02-08T09:37:25;15.23;;;13.73;;
27303;SDS011;14791;52.392;13.092;2023-02-08T09:39:54;15.00;;;13.27;;
27303;SDS011;14791;52.392;13.092;2023-02-08T09:42:28;15.57;;;13.60;;
27303;SDS011;14791;52.392;13.092;2023-02-08T09:45:02;17.33;;;15.07;;
27303;SDS011;14791;52.392;13.092;2023-02-08T09:47:59;16.70;;;14.33;;
27303;SDS011;14791;52.392;13.092;2023-02-08T09:50:33;16.03;;;14.33;;
27303;SDS011;14791;52.392;13.092;2023-02-08T09:53:07;16.73;;;14.23;;
27303;SDS011;14791;52.392;13.092;2023-02-08T09:55:43;15.40;;;13.63;;
27303;SDS011;14791;52.392;13.092;2023-02-08T10:01:10;16.37;;;14.27;;
27303;SDS011;14791;52.392;13.092;2023-02-08T10:03:44;17.10;;;14.53;;
27303;SDS011;14791;52.392;13.092;2023-02-08T10:06:16;17.03;;;15.23;;
27303;SDS011;14791;52.392;13.092;2023-02-08T10:08:48;18.13;;;15.87;;
27303;SDS011;14791;52.392;13.092;2023-02-08T10:13:54;15.17;;;13.57;;
27303;SDS011;14791;52.392;13.092;2023-02-08T10:19:21;16.97;;;14.70;;
27303;SDS011;14791;52.392;13.092;2023-02-08T10:27:15;17.23;;;15.17;;
27303;SDS011;14791;52.392;13.092;2023-02-08T10:34:59;16.33;;;14.63;;
27303;SDS011;14791;52.392;13.092;2023-02-08T10:37:35;20.33;;;15.63;;
27303;SDS011;14791;52.392;13.092;2023-02-08T10:40:14;16.27;;;14.67;;
27303;SDS011;14791;52.392;13.092;2023-02-08T10:42:37;15.33;;;13.80;;
27303;SDS011;14791;52.392;13.092;2023-02-08T10:45:15;17.67;;;15.77;;
27303;SDS011;14791;52.392;13.092;2023-02-08T10:47:49;15.53;;;13.90;;
27303;SDS011;14791;52.392;13.092;2023-02-08T10:53:04;16.97;;;15.03;;
27303;SDS011;14791;52.392;13.092;2023-02-08T10:55:40;17.27;;;15.33;;
27303;SDS011;14791;52.392;13.092;2023-02-08T10:58:09;16.27;;;14.53;;
27303;SDS011;14791;52.392;13.092;2023-02-08T11:00:39;17.73;;;15.83;;
27303;SDS011;14791;52.392;13.092;2023-02-08T11:03:17;20.07;;;16.00;;
27303;SDS011;14791;52.392;13.092;2023-02-08T11:05:47;20.33;;;15.60;;
27303;SDS011;14791;52.392;13.092;2023-02-08T11:08:17;17.97;;;15.70;;
27303;SDS011;14791;52.392;13.092;2023-02-08T11:11:08;15.83;;;14.17;;
27303;SDS011;14791;52.392;13.092;2023-02-08T11:13:43;18.87;;;15.27;;
27303;SDS011;14791;52.392;13.092;2023-02-08T11:16:20;16.63;;;14.70;;
27303;SDS011;14791;52.392;13.092;2023-02-08T11:18:55;17.07;;;15.23;;
27303;SDS011;14791;52.392;13.092;2023-02-08T11:21:28;17.97;;;16.07;;
27303;SDS011;14791;52.392;13.092;2023-02-08T11:24:24;18.63;;;16.37;;
27303;SDS011;14791;52.392;13.092;2023-02-08T11:26:37;18.77;;;16.63;;
27303;SDS011;14791;52.392;13.092;2023-02-08T11:29:23;18.07;;;16.17;;
27303;SDS011;14791;52.392;13.092;2023-02-08T11:34:30;17.83;;;15.97;;
27303;SDS011;14791;52.392;13.092;2023-02-08T11:37:01;19.00;;;17.00;;
27303;SDS011;14791;52.392;13.092;2023-02-08T11:39:35;18.73;;;16.70;;
27303;SDS011;14791;52.392;13.092;2023-02-08T11:42:04;20.77;;;16.53;;
27303;SDS011;14791;52.392;13.092;2023-02-08T11:44:35;20.10;;;17.87;;
27303;SDS011;14791;52.392;13.092;2023-02-08T11:47:06;21.03;;;17.90;;
27303;SDS011;14791;52.392;13.092;2023-02-08T11:49:41;19.20;;;17.00;;
27303;SDS011;14791;52.392;13.092;2023-02-08T11:52:22;19.23;;;17.23;;
27303;SDS011;14791;52.392;13.092;2023-02-08T11:54:53;19.30;;;16.63;;
27303;SDS011;14791;52.392;13.092;2023-02-08T11:57:25;18.47;;;16.43;;
27303;SDS011;14791;52.392;13.092;2023-02-08T12:00:11;18.57;;;16.57;;
27303;SDS011;14791;52.392;13.092;2023-02-08T12:02:35;17.77;;;15.90;;
27303;SDS011;14791;52.392;13.092;2023-02-08T12:05:09;18.17;;;16.13;;
27303;SDS011;14791;52.392;13.092;2023-02-08T12:07:45;18.50;;;16.60;;
27303;SDS011;14791;52.392;13.092;2023-02-08T12:13:22;18.00;;;16.10;;
27303;SDS011;14791;52.392;13.092;2023-02-08T12:16:04;18.87;;;16.93;;
27303;SDS011;14791;52.392;13.092;2023-02-08T12:18:41;19.90;;;16.93;;
27303;SDS011;14791;52.392;13.092;2023-02-08T12:21:20;16.37;;;14.87;;
27303;SDS011;14791;52.392;13.092;2023-02-08T12:23:54;17.00;;;15.20;;
27303;SDS011;14791;52.392;13.092;2023-02-08T12:34:55;17.97;;;16.10;;
27303;SDS011;14791;52.392;13.092;2023-02-08T12:43:25;18.67;;;16.77;;
27303;SDS011;14791;52.392;13.092;2023-02-08T12:48:45;17.73;;;15.93;;
27303;SDS011;14791;52.392;13.092;2023-02-08T12:51:18;22.47;;;14.50;;
27303;SDS011;14791;52.392;13.092;2023-02-08T12:53:59;19.03;;;16.67;;
27303;SDS011;14791;52.392;13.092;2023-02-08T12:56:35;14.80;;;13.37;;
27303;SDS011;14791;52.392;13.092;2023-02-08T12:59:18;18.47;;;16.57;;
27303;SDS011;14791;52.392;13.092;2023-02-08T13:01:43;18.90;;;16.93;;
27303;SDS011;14791;52.392;13.092;2023-02-08T13:04:19;15.87;;;14.30;;
27303;SDS011;14791;52.392;13.092;2023-02-08T13:06:51;17.93;;;16.13;;
27303;SDS011;14791;52.392;13.092;2023-02-08T13:09:24;17.80;;;15.90;;
27303;SDS011;14791;52.392;13.092;2023-02-08T13:11:59;17.17;;;15.57;;
27303;SDS011;14791;52.392;13.092;2023-02-08T13:14:37;17.27;;;15.53;;
27303;SDS011;14791;52.392;13.092;2023-02-08T13:22:28;19.47;;;17.50;;
27303;SDS011;14791;52.392;13.092;2023-02-08T13:24:58;20.07;;;17.47;;
27303;SDS011;14791;52.392;13.092;2023-02-08T13:27:29;17.47;;;15.77;;
27303;SDS011;14791;52.392;13.092;2023-02-08T13:29:58;17.70;;;15.90;;
27303;SDS011;14791;52.392;13.092;2023-02-08T13:32:29;17.03;;;15.43;;
27303;SDS011;14791;52.392;13.092;2023-02-08T13:35:13;17.00;;;15.43;;
27303;SDS011;14791;52.392;13.092;2023-02-08T13:37:50;16.47;;;14.97;;
27303;SDS011;14791;52.392;13.092;2023-02-08T13:40:25;17.10;;;15.50;;
27303;SDS011;14791;52.392;13.092;2023-02-08T13:45:32;16.30;;;14.80;;
27303;SDS011;14791;52.392;13.092;2023-02-08T13:48:04;18.27;;;16.47;;
27303;SDS011;14791;52.392;13.092;2023-02-08T13:50:43;18.17;;;16.47;;
27303;SDS011;14791;52.392;13.092;2023-02-08T13:53:18;15.57;;;14.17;;
27303;SDS011;14791;52.392;13.092;2023-02-08T13:56:08;16.23;;;14.57;;
27303;SDS011;14791;52.392;13.092;2023-02-08T14:11:53;17.93;;;16.33;;
27303;SDS011;14791;52.392;13.092;2023-02-08T14:14:26;17.27;;;15.57;;
27303;SDS011;14791;52.392;13.092;2023-02-08T14:19:41;17.40;;;15.80;;
27303;SDS011;14791;52.392;13.092;2023-02-08T14:22:16;18.17;;;16.47;;
27303;SDS011;14791;52.392;13.092;2023-02-08T14:24:59;17.67;;;15.97;;
27303;SDS011;14791;52.392;13.092;2023-02-08T14:27:48;18.20;;;16.40;;
27303;SDS011;14791;52.392;13.092;2023-02-08T14:30:21;18.13;;;16.43;;
27303;SDS011;14791;52.392;13.092;2023-02-08T14:32:53;17.67;;;15.87;;
27303;SDS011;14791;52.392;13.092;2023-02-08T14:35:30;16.80;;;15.20;;
27303;SDS011;14791;52.392;13.092;2023-02-08T14:40:58;17.90;;;16.10;;
27303;SDS011;14791;52.392;13.092;2023-02-08T14:43:35;18.00;;;16.10;;
27303;SDS011;14791;52.392;13.092;2023-02-08T14:46:40;17.80;;;16.00;;
27303;SDS011;14791;52.392;13.092;2023-02-08T14:49:09;17.57;;;15.73;;
27303;SDS011;14791;52.392;13.092;2023-02-08T14:51:50;18.63;;;16.17;;
27303;SDS011;14791;52.392;13.092;2023-02-08T14:54:35;18.20;;;16.50;;
27303;SDS011;14791;52.392;13.092;2023-02-08T14:57:28;17.63;;;15.87;;
27303;SDS011;14791;52.392;13.092;2023-02-08T14:59:58;17.87;;;16.23;;
27303;SDS011;14791;52.392;13.092;2023-02-08T15:02:35;17.00;;;15.40;;
27303;SDS011;14791;52.392;13.092;2023-02-08T15:05:17;16.87;;;15.33;;
27303;SDS011;14791;52.392;13.092;2023-02-08T15:07:46;16.23;;;14.50;;
27303;SDS011;14791;52.392;13.092;2023-02-08T15:10:16;16.43;;;14.83;;
27303;SDS011;14791;52.392;13.092;2023-02-08T15:12:55;16.33;;;14.70;;
27303;SDS011;14791;52.392;13.092;2023-02-08T15:15:25;17.60;;;14.10;;
27303;SDS011;14791;52.392;13.092;2023-02-08T15:17:58;22.30;;;16.60;;
27303;SDS011;14791;52.392;13.092;2023-02-08T15:20:30;17.10;;;15.43;;
27303;SDS011;14791;52.392;13.092;2023-02-08T15:23:05;16.93;;;15.13;;
27303;SDS011;14791;52.392;13.092;2023-02-08T15:25:55;16.53;;;15.03;;
27303;SDS011;14791;52.392;13.092;2023-02-08T15:28:30;17.60;;;15.90;;
27303;SDS011;14791;52.392;13.092;2023-02-08T15:33:32;15.87;;;14.23;;
27303;SDS011;14791;52.392;13.092;2023-02-08T15:36:07;15.47;;;14.00;;
27303;SDS011;14791;52.392;13.092;2023-02-08T15:38:43;16.33;;;14.63;;
27303;SDS011;14791;52.392;13.092;2023-02-08T15:41:13;16.33;;;14.73;;
27303;SDS011;14791;52.392;13.092;2023-02-08T15:43:44;17.03;;;15.43;;
27303;SDS011;14791;52.392;13.092;2023-02-08T15:46:17;16.07;;;14.53;;
27303;SDS011;14791;52.392;13.092;2023-02-08T15:48:50;15.83;;;14.40;;
27303;SDS011;14791;52.392;13.092;2023-02-08T15:51:22;21.00;;;14.97;;
27303;SDS011;14791;52.392;13.092;2023-02-08T15:53:53;19.30;;;15.13;;
27303;SDS011;14791;52.392;13.092;2023-02-08T15:56:34;16.57;;;15.03;;
27303;SDS011;14791;52.392;13.092;2023-02-08T15:59:01;16.10;;;14.50;;
27303;SDS011;14791;52.392;13.092;2023-02-08T16:01:32;15.67;;;14.03;;
27303;SDS011;14791;52.392;13.092;2023-02-08T16:04:02;16.33;;;14.73;;
27303;SDS011;14791;52.392;13.092;2023-02-08T16:06:36;16.27;;;14.43;;
27303;SDS011;14791;52.392;13.092;2023-02-08T16:09:06;16.83;;;13.87;;
27303;SDS011;14791;52.392;13.092;2023-02-08T16:11:36;14.63;;;13.33;;
27303;SDS011;14791;52.392;13.092;2023-02-08T16:14:05;14.53;;;13.07;;
27303;SDS011;14791;52.392;13.092;2023-02-08T16:19:20;14.83;;;13.37;;
27303;SDS011;14791;52.392;13.092;2023-02-08T16:24:41;13.80;;;12.50;;
27303;SDS011;14791;52.392;13.092;2023-02-08T16:27:30;14.70;;;13.30;;
27303;SDS011;14791;52.392;13.092;2023-02-08T16:29:49;13.73;;;12.33;;
27303;SDS011;14791;52.392;13.092;2023-02-08T16:34:55;15.77;;;14.07;;